sensor_id;sensor_type;location;lat;lon;timestamp;P1;durP1;ratioP1;P2;durP2;ratioP2
8415;SDS011;4245;42.120;24.732;2023-07-24T00:01:24;13.75;;;8.18;;
8415;SDS011;4245;42.120;24.732;2023-07-24T00:03:51;12.13;;;7.70;;
8415;SDS011;4245;42.120;24.732;2023-07-24T00:06:19;13.93;;;8.73;;
8415;SDS011;4245;42.120;24.732;2023-07-24T00:08:46;16.38;;;9.15;;
8415;SDS011;4245;42.120;24.732;2023-07-24T00:11:13;12.70;;;8.05;;
8415;SDS011;4245;42.120;24.732;2023-07-24T00:13:40;13.87;;;9.10;;
8415;SDS011;4245;42.120;24.732;2023-07-24T00:16:17;16.47;;;9.13;;
8415;SDS011;4245;42.120;24.732;2023-07-24T00:18:45;12.57;;;9.23;;
8415;SDS011;4245;42.120;24.732;2023-07-24T00:21:12;14.80;;;9.47;;
8415;SDS011;4245;42.120;24.732;2023-07-24T00:23:39;12.30;;;8.68;;
8415;SDS011;4245;42.120;24.732;2023-07-24T00:26:07;12.67;;;8.50;;
8415;SDS011;4245;42.120;24.732;2023-07-24T00:28:36;12.43;;;8.53;;
8415;SDS011;4245;42.120;24.732;2023-07-24T00:31:03;11.40;;;7.80;;
8415;SDS011;4245;42.120;24.732;2023-07-24T00:33:31;11.73;;;7.60;;
8415;SDS011;4245;42.120;24.732;2023-07-24T00:35:59;12.67;;;8.20;;
8415;SDS011;4245;42.120;24.732;2023-07-24T00:38:26;12.43;;;8.00;;
8415;SDS011;4245;42.120;24.732;2023-07-24T00:40:52;13.57;;;8.00;;
8415;SDS011;4245;42.120;24.732;2023-07-24T00:43:19;10.13;;;7.70;;
8415;SDS011;4245;42.120;24.732;2023-07-24T00:45:46;14.60;;;8.13;;
8415;SDS011;4245;42.120;24.732;2023-07-24T00:48:13;10.97;;;7.77;;
8415;SDS011;4245;42.120;24.732;2023-07-24T00:50:42;10.73;;;7.10;;
8415;SDS011;4245;42.120;24.732;2023-07-24T00:53:10;10.33;;;7.43;;
8415;SDS011;4245;42.120;24.732;2023-07-24T00:55:38;11.13;;;7.50;;
8415;SDS011;4245;42.120;24.732;2023-07-24T00:58:06;11.43;;;7.63;;
8415;SDS011;4245;42.120;24.732;2023-07-24T01:00:33;11.20;;;8.37;;
8415;SDS011;4245;42.120;24.732;2023-07-24T01:03:00;12.93;;;7.73;;
8415;SDS011;4245;42.120;24.732;2023-07-24T01:05:27;11.60;;;6.97;;
8415;SDS011;4245;42.120;24.732;2023-07-24T01:07:56;10.87;;;7.43;;
8415;SDS011;4245;42.120;24.732;2023-07-24T01:10:23;10.47;;;7.30;;
8415;SDS011;4245;42.120;24.732;2023-07-24T01:12:51;9.00;;;7.50;;
8415;SDS011;4245;42.120;24.732;2023-07-24T01:15:25;11.17;;;7.60;;
8415;SDS011;4245;42.120;24.732;2023-07-24T01:17:59;12.60;;;7.77;;
8415;SDS011;4245;42.120;24.732;2023-07-24T01:20:28;10.07;;;7.97;;
8415;SDS011;4245;42.120;24.732;2023-07-24T01:23:02;9.67;;;7.50;;
8415;SDS011;4245;42.120;24.732;2023-07-24T01:25:46;10.30;;;7.27;;
8415;SDS011;4245;42.120;24.732;2023-07-24T01:28:24;12.73;;;7.83;;
8415;SDS011;4245;42.120;24.732;2023-07-24T01:30:51;11.20;;;7.83;;
8415;SDS011;4245;42.120;24.732;2023-07-24T01:33:18;13.67;;;7.33;;
8415;SDS011;4245;42.120;24.732;2023-07-24T01:35:46;10.17;;;7.57;;
8415;SDS011;4245;42.120;24.732;2023-07-24T01:38:16;12.77;;;7.20;;
8415;SDS011;4245;42.120;24.732;2023-07-24T01:40:47;9.37;;;7.40;;
8415;SDS011;4245;42.120;24.732;2023-07-24T01:43:15;11.47;;;7.40;;
8415;SDS011;4245;42.120;24.732;2023-07-24T01:45:41;9.57;;;8.00;;
8415;SDS011;4245;42.120;24.732;2023-07-24T01:48:08;12.30;;;8.13;;
8415;SDS011;4245;42.120;24.732;2023-07-24T01:50:35;10.93;;;8.30;;
8415;SDS011;4245;42.120;24.732;2023-07-24T01:53:02;15.97;;;8.70;;
8415;SDS011;4245;42.120;24.732;2023-07-24T01:55:29;10.47;;;8.30;;
8415;SDS011;4245;42.120;24.732;2023-07-24T01:57:58;14.87;;;8.70;;
8415;SDS011;4245;42.120;24.732;2023-07-24T02:00:25;11.10;;;8.07;;
8415;SDS011;4245;42.120;24.732;2023-07-24T02:02:52;12.13;;;7.47;;
8415;SDS011;4245;42.120;24.732;2023-07-24T02:05:19;14.37;;;8.40;;
8415;SDS011;4245;42.120;24.732;2023-07-24T02:07:46;11.77;;;8.00;;
8415;SDS011;4245;42.120;24.732;2023-07-24T02:10:12;14.70;;;8.67;;
8415;SDS011;4245;42.120;24.732;2023-07-24T02:12:39;10.93;;;8.33;;
8415;SDS011;4245;42.120;24.732;2023-07-24T02:15:08;11.23;;;9.00;;
8415;SDS011;4245;42.120;24.732;2023-07-24T02:17:35;12.57;;;9.20;;
8415;SDS011;4245;42.120;24.732;2023-07-24T02:20:02;13.83;;;9.20;;
8415;SDS011;4245;42.120;24.732;2023-07-24T02:22:29;15.10;;;10.70;;
8415;SDS011;4245;42.120;24.732;2023-07-24T02:24:56;15.47;;;10.40;;
8415;SDS011;4245;42.120;24.732;2023-07-24T02:27:27;20.30;;;12.40;;
8415;SDS011;4245;42.120;24.732;2023-07-24T02:29:57;16.87;;;12.03;;
8415;SDS011;4245;42.120;24.732;2023-07-24T02:32:26;18.33;;;12.40;;
8415;SDS011;4245;42.120;24.732;2023-07-24T02:34:53;22.33;;;11.93;;
8415;SDS011;4245;42.120;24.732;2023-07-24T02:37:20;19.17;;;11.50;;
8415;SDS011;4245;42.120;24.732;2023-07-24T02:39:47;17.53;;;12.07;;
8415;SDS011;4245;42.120;24.732;2023-07-24T02:42:14;16.97;;;11.10;;
8415;SDS011;4245;42.120;24.732;2023-07-24T02:44:41;16.23;;;10.97;;
8415;SDS011;4245;42.120;24.732;2023-07-24T02:47:08;17.27;;;11.50;;
8415;SDS011;4245;42.120;24.732;2023-07-24T02:49:36;20.53;;;12.83;;
8415;SDS011;4245;42.120;24.732;2023-07-24T02:52:03;19.00;;;12.37;;
8415;SDS011;4245;42.120;24.732;2023-07-24T02:54:30;24.80;;;14.53;;
8415;SDS011;4245;42.120;24.732;2023-07-24T02:56:57;27.57;;;15.53;;
8415;SDS011;4245;42.120;24.732;2023-07-24T02:59:24;23.93;;;14.83;;
8415;SDS011;4245;42.120;24.732;2023-07-24T03:01:51;26.37;;;15.20;;
8415;SDS011;4245;42.120;24.732;2023-07-24T03:04:18;22.40;;;14.47;;
8415;SDS011;4245;42.120;24.732;2023-07-24T03:06:46;23.83;;;15.23;;
8415;SDS011;4245;42.120;24.732;2023-07-24T03:09:13;29.33;;;16.77;;
8415;SDS011;4245;42.120;24.732;2023-07-24T03:11:40;26.57;;;16.80;;
8415;SDS011;4245;42.120;24.732;2023-07-24T03:14:06;29.07;;;17.10;;
8415;SDS011;4245;42.120;24.732;2023-07-24T03:16:34;29.57;;;17.40;;
8415;SDS011;4245;42.120;24.732;2023-07-24T03:19:01;28.13;;;16.10;;
8415;SDS011;4245;42.120;24.732;2023-07-24T03:21:28;25.47;;;15.70;;
8415;SDS011;4245;42.120;24.732;2023-07-24T03:23:56;30.07;;;16.17;;
8415;SDS011;4245;42.120;24.732;2023-07-24T03:26:22;31.93;;;17.37;;
8415;SDS011;4245;42.120;24.732;2023-07-24T03:28:49;23.50;;;15.80;;
8415;SDS011;4245;42.120;24.732;2023-07-24T03:31:16;29.60;;;16.93;;
8415;SDS011;4245;42.120;24.732;2023-07-24T03:33:43;24.37;;;14.77;;
8415;SDS011;4245;42.120;24.732;2023-07-24T03:36:10;34.50;;;19.10;;
8415;SDS011;4245;42.120;24.732;2023-07-24T03:38:37;28.27;;;17.93;;
8415;SDS011;4245;42.120;24.732;2023-07-24T03:41:06;27.10;;;18.37;;
8415;SDS011;4245;42.120;24.732;2023-07-24T03:43:33;24.17;;;16.20;;
8415;SDS011;4245;42.120;24.732;2023-07-24T03:46:00;28.23;;;16.77;;
8415;SDS011;4245;42.120;24.732;2023-07-24T03:48:26;33.43;;;19.60;;
8415;SDS011;4245;42.120;24.732;2023-07-24T03:50:57;24.13;;;17.90;;
8415;SDS011;4245;42.120;24.732;2023-07-24T03:53:25;30.70;;;17.53;;
8415;SDS011;4245;42.120;24.732;2023-07-24T03:55:52;26.87;;;17.50;;
8415;SDS011;4245;42.120;24.732;2023-07-24T03:58:23;30.83;;;17.20;;
8415;SDS011;4245;42.120;24.732;2023-07-24T04:00:49;28.53;;;16.10;;
8415;SDS011;4245;42.120;24.732;2023-07-24T04:03:16;21.80;;;15.23;;
8415;SDS011;4245;42.120;24.732;2023-07-24T04:05:44;26.07;;;15.80;;
8415;SDS011;4245;42.120;24.732;2023-07-24T04:08:11;26.80;;;16.07;;
8415;SDS011;4245;42.120;24.732;2023-07-24T04:10:37;32.03;;;19.20;;
8415;SDS011;4245;42.120;24.732;2023-07-24T04:13:05;29.23;;;18.80;;
8415;SDS011;4245;42.120;24.732;2023-07-24T04:15:37;35.37;;;18.13;;
8415;SDS011;4245;42.120;24.732;2023-07-24T04:18:04;26.60;;;17.20;;
8415;SDS011;4245;42.120;24.732;2023-07-24T04:20:31;25.00;;;16.50;;
8415;SDS011;4245;42.120;24.732;2023-07-24T04:22:58;56.30;;;32.97;;
8415;SDS011;4245;42.120;24.732;2023-07-24T04:25:25;25.73;;;16.97;;
8415;SDS011;4245;42.120;24.732;2023-07-24T04:27:52;27.20;;;16.80;;
8415;SDS011;4245;42.120;24.732;2023-07-24T04:30:19;23.57;;;17.17;;
8415;SDS011;4245;42.120;24.732;2023-07-24T04:32:47;26.17;;;16.43;;
8415;SDS011;4245;42.120;24.732;2023-07-24T04:35:14;26.13;;;17.33;;
8415;SDS011;4245;42.120;24.732;2023-07-24T04:37:41;28.47;;;16.57;;
8415;SDS011;4245;42.120;24.732;2023-07-24T04:40:08;26.30;;;14.10;;
8415;SDS011;4245;42.120;24.732;2023-07-24T04:42:36;20.90;;;14.07;;
8415;SDS011;4245;42.120;24.732;2023-07-24T04:45:05;24.23;;;14.93;;
8415;SDS011;4245;42.120;24.732;2023-07-24T04:47:32;21.70;;;13.83;;
8415;SDS011;4245;42.120;24.732;2023-07-24T04:50:00;22.30;;;14.23;;
8415;SDS011;4245;42.120;24.732;2023-07-24T04:52:27;28.23;;;15.00;;
8415;SDS011;4245;42.120;24.732;2023-07-24T04:54:54;23.77;;;14.37;;
8415;SDS011;4245;42.120;24.732;2023-07-24T04:57:20;23.43;;;14.03;;
8415;SDS011;4245;42.120;24.732;2023-07-24T04:59:47;28.07;;;15.13;;
8415;SDS011;4245;42.120;24.732;2023-07-24T05:02:14;32.20;;;16.43;;
8415;SDS011;4245;42.120;24.732;2023-07-24T05:04:41;27.53;;;15.77;;
8415;SDS011;4245;42.120;24.732;2023-07-24T05:07:10;32.07;;;16.40;;
8415;SDS011;4245;42.120;24.732;2023-07-24T05:09:36;35.17;;;18.13;;
8415;SDS011;4245;42.120;24.732;2023-07-24T05:12:04;32.90;;;17.20;;
8415;SDS011;4245;42.120;24.732;2023-07-24T05:14:32;30.20;;;18.33;;
8415;SDS011;4245;42.120;24.732;2023-07-24T05:16:59;29.87;;;17.90;;
8415;SDS011;4245;42.120;24.732;2023-07-24T05:19:27;35.80;;;18.23;;
8415;SDS011;4245;42.120;24.732;2023-07-24T05:21:54;33.27;;;17.20;;
8415;SDS011;4245;42.120;24.732;2023-07-24T05:24:25;28.00;;;16.07;;
8415;SDS011;4245;42.120;24.732;2023-07-24T05:26:53;30.80;;;16.63;;
8415;SDS011;4245;42.120;24.732;2023-07-24T05:29:19;27.83;;;16.70;;
8415;SDS011;4245;42.120;24.732;2023-07-24T05:31:48;27.03;;;16.70;;
8415;SDS011;4245;42.120;24.732;2023-07-24T05:34:16;27.20;;;16.63;;
8415;SDS011;4245;42.120;24.732;2023-07-24T05:36:43;32.03;;;17.50;;
8415;SDS011;4245;42.120;24.732;2023-07-24T05:39:09;26.67;;;18.33;;
8415;SDS011;4245;42.120;24.732;2023-07-24T05:41:38;30.20;;;19.30;;
8415;SDS011;4245;42.120;24.732;2023-07-24T05:44:04;27.37;;;17.03;;
8415;SDS011;4245;42.120;24.732;2023-07-24T05:46:31;31.17;;;19.40;;
8415;SDS011;4245;42.120;24.732;2023-07-24T05:48:58;33.90;;;17.60;;
8415;SDS011;4245;42.120;24.732;2023-07-24T05:51:26;29.10;;;18.10;;
8415;SDS011;4245;42.120;24.732;2023-07-24T05:53:53;28.27;;;17.80;;
8415;SDS011;4245;42.120;24.732;2023-07-24T05:56:20;33.67;;;18.73;;
8415;SDS011;4245;42.120;24.732;2023-07-24T05:58:49;27.63;;;17.00;;
8415;SDS011;4245;42.120;24.732;2023-07-24T06:01:16;35.83;;;18.45;;
8415;SDS011;4245;42.120;24.732;2023-07-24T06:03:43;31.23;;;18.35;;
8415;SDS011;4245;42.120;24.732;2023-07-24T06:06:09;36.00;;;19.00;;
8415;SDS011;4245;42.120;24.732;2023-07-24T06:08:36;30.02;;;18.05;;
8415;SDS011;4245;42.120;24.732;2023-07-24T06:11:03;29.85;;;18.90;;
8415;SDS011;4245;42.120;24.732;2023-07-24T06:13:29;32.47;;;18.17;;
8415;SDS011;4245;42.120;24.732;2023-07-24T06:15:58;25.48;;;17.38;;
8415;SDS011;4245;42.120;24.732;2023-07-24T06:18:24;24.70;;;16.73;;
8415;SDS011;4245;42.120;24.732;2023-07-24T06:20:52;28.08;;;15.73;;
8415;SDS011;4245;42.120;24.732;2023-07-24T06:23:18;26.83;;;15.73;;
8415;SDS011;4245;42.120;24.732;2023-07-24T06:25:45;20.67;;;14.63;;
8415;SDS011;4245;42.120;24.732;2023-07-24T06:28:12;27.85;;;16.73;;
8415;SDS011;4245;42.120;24.732;2023-07-24T06:30:38;25.58;;;15.77;;
8415;SDS011;4245;42.120;24.732;2023-07-24T06:33:07;31.65;;;16.58;;
8415;SDS011;4245;42.120;24.732;2023-07-24T06:35:33;28.38;;;16.05;;
8415;SDS011;4245;42.120;24.732;2023-07-24T06:38:00;24.77;;;16.23;;
8415;SDS011;4245;42.120;24.732;2023-07-24T06:40:27;21.13;;;16.05;;
8415;SDS011;4245;42.120;24.732;2023-07-24T06:42:54;25.05;;;15.90;;
8415;SDS011;4245;42.120;24.732;2023-07-24T06:45:39;24.50;;;15.75;;
8415;SDS011;4245;42.120;24.732;2023-07-24T06:48:07;19.85;;;14.75;;
8415;SDS011;4245;42.120;24.732;2023-07-24T06:50:34;21.27;;;14.95;;
8415;SDS011;4245;42.120;24.732;2023-07-24T06:53:01;23.85;;;15.82;;
8415;SDS011;4245;42.120;24.732;2023-07-24T06:55:27;23.35;;;15.52;;
8415;SDS011;4245;42.120;24.732;2023-07-24T06:57:54;21.73;;;15.88;;
8415;SDS011;4245;42.120;24.732;2023-07-24T07:00:21;25.13;;;16.00;;
8415;SDS011;4245;42.120;24.732;2023-07-24T07:02:48;23.10;;;15.68;;
8415;SDS011;4245;42.120;24.732;2023-07-24T07:05:16;22.63;;;16.02;;
8415;SDS011;4245;42.120;24.732;2023-07-24T07:07:43;23.73;;;15.88;;
8415;SDS011;4245;42.120;24.732;2023-07-24T07:10:09;23.45;;;16.00;;
8415;SDS011;4245;42.120;24.732;2023-07-24T07:12:36;23.42;;;15.68;;
8415;SDS011;4245;42.120;24.732;2023-07-24T07:15:03;25.80;;;15.60;;
8415;SDS011;4245;42.120;24.732;2023-07-24T07:17:31;24.42;;;16.98;;
8415;SDS011;4245;42.120;24.732;2023-07-24T07:19:57;25.20;;;16.80;;
8415;SDS011;4245;42.120;24.732;2023-07-24T07:22:26;25.98;;;16.90;;
8415;SDS011;4245;42.120;24.732;2023-07-24T07:24:52;25.70;;;16.45;;
8415;SDS011;4245;42.120;24.732;2023-07-24T07:27:19;23.23;;;16.13;;
8415;SDS011;4245;42.120;24.732;2023-07-24T07:29:46;23.15;;;15.02;;
8415;SDS011;4245;42.120;24.732;2023-07-24T07:32:13;23.65;;;15.45;;
8415;SDS011;4245;42.120;24.732;2023-07-24T07:34:39;19.95;;;15.30;;
8415;SDS011;4245;42.120;24.732;2023-07-24T07:37:06;22.08;;;14.63;;
8415;SDS011;4245;42.120;24.732;2023-07-24T07:39:34;21.67;;;15.73;;
8415;SDS011;4245;42.120;24.732;2023-07-24T07:42:01;20.95;;;15.30;;
8415;SDS011;4245;42.120;24.732;2023-07-24T07:44:28;24.52;;;17.02;;
8415;SDS011;4245;42.120;24.732;2023-07-24T07:46:55;35.30;;;29.77;;
8415;SDS011;4245;42.120;24.732;2023-07-24T07:49:21;18.90;;;15.27;;
8415;SDS011;4245;42.120;24.732;2023-07-24T07:51:48;23.35;;;14.48;;
8415;SDS011;4245;42.120;24.732;2023-07-24T07:54:15;23.15;;;15.68;;
8415;SDS011;4245;42.120;24.732;2023-07-24T07:56:44;22.70;;;15.20;;
8415;SDS011;4245;42.120;24.732;2023-07-24T07:59:10;22.70;;;15.82;;
8415;SDS011;4245;42.120;24.732;2023-07-24T08:01:37;21.50;;;15.70;;
8415;SDS011;4245;42.120;24.732;2023-07-24T08:04:05;23.15;;;20.45;;
8415;SDS011;4245;42.120;24.732;2023-07-24T08:06:32;20.30;;;15.27;;
8415;SDS011;4245;42.120;24.732;2023-07-24T08:08:59;21.92;;;14.80;;
8415;SDS011;4245;42.120;24.732;2023-07-24T08:11:25;27.10;;;16.00;;
8415;SDS011;4245;42.120;24.732;2023-07-24T08:13:53;22.23;;;15.93;;
8415;SDS011;4245;42.120;24.732;2023-07-24T08:16:20;26.13;;;16.27;;
8415;SDS011;4245;42.120;24.732;2023-07-24T08:18:47;24.55;;;14.82;;
8415;SDS011;4245;42.120;24.732;2023-07-24T08:21:14;24.95;;;15.13;;
8415;SDS011;4245;42.120;24.732;2023-07-24T08:23:41;22.55;;;15.52;;
8415;SDS011;4245;42.120;24.732;2023-07-24T08:26:08;24.33;;;16.77;;
8415;SDS011;4245;42.120;24.732;2023-07-24T08:28:35;29.55;;;17.35;;
8415;SDS011;4245;42.120;24.732;2023-07-24T08:31:03;19.58;;;14.95;;
8415;SDS011;4245;42.120;24.732;2023-07-24T08:33:30;22.55;;;13.98;;
8415;SDS011;4245;42.120;24.732;2023-07-24T08:35:58;17.42;;;13.57;;
8415;SDS011;4245;42.120;24.732;2023-07-24T08:38:25;20.00;;;13.18;;
8415;SDS011;4245;42.120;24.732;2023-07-24T08:40:59;21.10;;;13.60;;
8415;SDS011;4245;42.120;24.732;2023-07-24T08:43:26;15.45;;;13.40;;
8415;SDS011;4245;42.120;24.732;2023-07-24T08:45:54;18.05;;;14.30;;
8415;SDS011;4245;42.120;24.732;2023-07-24T08:48:23;27.55;;;15.02;;
8415;SDS011;4245;42.120;24.732;2023-07-24T08:50:51;20.23;;;13.95;;
8415;SDS011;4245;42.120;24.732;2023-07-24T08:53:19;18.02;;;13.77;;
8415;SDS011;4245;42.120;24.732;2023-07-24T08:55:47;19.42;;;13.32;;
8415;SDS011;4245;42.120;24.732;2023-07-24T08:58:15;18.73;;;12.95;;
8415;SDS011;4245;42.120;24.732;2023-07-24T09:00:42;18.17;;;12.95;;
8415;SDS011;4245;42.120;24.732;2023-07-24T09:03:08;17.60;;;13.88;;
8415;SDS011;4245;42.120;24.732;2023-07-24T09:05:38;14.50;;;12.55;;
8415;SDS011;4245;42.120;24.732;2023-07-24T09:08:04;16.20;;;12.68;;
8415;SDS011;4245;42.120;24.732;2023-07-24T09:10:31;18.63;;;12.95;;
8415;SDS011;4245;42.120;24.732;2023-07-24T09:12:58;13.20;;;11.55;;
8415;SDS011;4245;42.120;24.732;2023-07-24T09:15:25;17.98;;;12.77;;
8415;SDS011;4245;42.120;24.732;2023-07-24T09:17:52;14.40;;;12.50;;
8415;SDS011;4245;42.120;24.732;2023-07-24T09:20:19;13.05;;;10.95;;
8415;SDS011;4245;42.120;24.732;2023-07-24T09:22:51;17.45;;;12.65;;
8415;SDS011;4245;42.120;24.732;2023-07-24T09:25:29;14.85;;;11.13;;
8415;SDS011;4245;42.120;24.732;2023-07-24T09:27:56;15.52;;;10.88;;
8415;SDS011;4245;42.120;24.732;2023-07-24T09:30:23;21.27;;;11.15;;
8415;SDS011;4245;42.120;24.732;2023-07-24T09:32:51;15.70;;;11.23;;
8415;SDS011;4245;42.120;24.732;2023-07-24T09:35:19;16.85;;;11.52;;
8415;SDS011;4245;42.120;24.732;2023-07-24T09:38:00;14.25;;;11.10;;
8415;SDS011;4245;42.120;24.732;2023-07-24T09:40:36;14.60;;;11.30;;
8415;SDS011;4245;42.120;24.732;2023-07-24T09:43:13;20.02;;;12.50;;
8415;SDS011;4245;42.120;24.732;2023-07-24T09:45:41;13.73;;;11.82;;
8415;SDS011;4245;42.120;24.732;2023-07-24T09:48:09;14.10;;;11.23;;
8415;SDS011;4245;42.120;24.732;2023-07-24T09:50:37;16.65;;;11.40;;
8415;SDS011;4245;42.120;24.732;2023-07-24T09:53:06;14.20;;;10.45;;
8415;SDS011;4245;42.120;24.732;2023-07-24T09:55:45;13.45;;;11.32;;
8415;SDS011;4245;42.120;24.732;2023-07-24T09:58:16;15.85;;;11.40;;
8415;SDS011;4245;42.120;24.732;2023-07-24T10:00:44;12.55;;;11.25;;
8415;SDS011;4245;42.120;24.732;2023-07-24T10:03:12;19.73;;;11.52;;
8415;SDS011;4245;42.120;24.732;2023-07-24T10:05:40;14.93;;;11.13;;
8415;SDS011;4245;42.120;24.732;2023-07-24T10:08:10;14.75;;;11.70;;
8415;SDS011;4245;42.120;24.732;2023-07-24T10:10:37;13.45;;;10.85;;
8415;SDS011;4245;42.120;24.732;2023-07-24T10:13:05;14.90;;;11.60;;
8415;SDS011;4245;42.120;24.732;2023-07-24T10:15:32;17.20;;;11.52;;
8415;SDS011;4245;42.120;24.732;2023-07-24T10:18:02;14.25;;;11.25;;
8415;SDS011;4245;42.120;24.732;2023-07-24T10:20:33;15.02;;;11.75;;
8415;SDS011;4245;42.120;24.732;2023-07-24T10:23:01;15.27;;;11.07;;
8415;SDS011;4245;42.120;24.732;2023-07-24T10:25:30;15.13;;;11.18;;
8415;SDS011;4245;42.120;24.732;2023-07-24T10:28:01;14.65;;;11.57;;
8415;SDS011;4245;42.120;24.732;2023-07-24T10:30:33;17.25;;;11.90;;
8415;SDS011;4245;42.120;24.732;2023-07-24T10:33:04;19.67;;;11.30;;
8415;SDS011;4245;42.120;24.732;2023-07-24T10:35:42;13.57;;;11.10;;
8415;SDS011;4245;42.120;24.732;2023-07-24T10:38:11;13.13;;;10.30;;
8415;SDS011;4245;42.120;24.732;2023-07-24T10:40:40;11.77;;;10.55;;
8415;SDS011;4245;42.120;24.732;2023-07-24T10:43:08;15.07;;;9.85;;
8415;SDS011;4245;42.120;24.732;2023-07-24T10:45:39;13.65;;;9.48;;
8415;SDS011;4245;42.120;24.732;2023-07-24T10:48:12;15.63;;;10.18;;
8415;SDS011;4245;42.120;24.732;2023-07-24T10:50:39;15.40;;;9.60;;
8415;SDS011;4245;42.120;24.732;2023-07-24T10:53:07;12.38;;;8.82;;
8415;SDS011;4245;42.120;24.732;2023-07-24T10:55:35;11.23;;;8.57;;
8415;SDS011;4245;42.120;24.732;2023-07-24T10:58:03;10.25;;;8.65;;
8415;SDS011;4245;42.120;24.732;2023-07-24T11:00:30;11.05;;;9.75;;
8415;SDS011;4245;42.120;24.732;2023-07-24T11:02:56;16.98;;;10.90;;
8415;SDS011;4245;42.120;24.732;2023-07-24T11:05:23;14.52;;;10.20;;
8415;SDS011;4245;42.120;24.732;2023-07-24T11:07:50;17.70;;;11.65;;
8415;SDS011;4245;42.120;24.732;2023-07-24T11:10:18;16.33;;;11.48;;
8415;SDS011;4245;42.120;24.732;2023-07-24T11:12:46;14.15;;;11.23;;
8415;SDS011;4245;42.120;24.732;2023-07-24T11:15:14;13.60;;;11.35;;
8415;SDS011;4245;42.120;24.732;2023-07-24T11:17:42;16.45;;;11.50;;
8415;SDS011;4245;42.120;24.732;2023-07-24T11:20:09;12.85;;;11.43;;
8415;SDS011;4245;42.120;24.732;2023-07-24T11:22:37;13.35;;;11.68;;
8415;SDS011;4245;42.120;24.732;2023-07-24T11:25:06;14.07;;;11.07;;
8415;SDS011;4245;42.120;24.732;2023-07-24T11:27:37;16.85;;;11.27;;
8415;SDS011;4245;42.120;24.732;2023-07-24T11:30:06;13.82;;;11.35;;
8415;SDS011;4245;42.120;24.732;2023-07-24T11:32:35;15.07;;;11.90;;
8415;SDS011;4245;42.120;24.732;2023-07-24T11:35:04;12.20;;;10.93;;
8415;SDS011;4245;42.120;24.732;2023-07-24T11:37:31;16.55;;;11.43;;
8415;SDS011;4245;42.120;24.732;2023-07-24T11:39:59;15.02;;;12.52;;
8415;SDS011;4245;42.120;24.732;2023-07-24T11:42:29;14.82;;;13.10;;
8415;SDS011;4245;42.120;24.732;2023-07-24T11:45:00;12.73;;;11.15;;
8415;SDS011;4245;42.120;24.732;2023-07-24T11:47:27;15.80;;;12.20;;
8415;SDS011;4245;42.120;24.732;2023-07-24T11:49:59;14.82;;;12.60;;
8415;SDS011;4245;42.120;24.732;2023-07-24T11:52:36;15.75;;;11.85;;
8415;SDS011;4245;42.120;24.732;2023-07-24T11:55:04;13.25;;;11.90;;
8415;SDS011;4245;42.120;24.732;2023-07-24T11:57:32;14.07;;;12.65;;
8415;SDS011;4245;42.120;24.732;2023-07-24T11:59:58;15.65;;;11.63;;
8415;SDS011;4245;42.120;24.732;2023-07-24T12:02:25;13.75;;;12.25;;
8415;SDS011;4245;42.120;24.732;2023-07-24T12:04:53;12.68;;;11.38;;
8415;SDS011;4245;42.120;24.732;2023-07-24T12:07:27;14.27;;;12.02;;
8415;SDS011;4245;42.120;24.732;2023-07-24T12:09:56;12.55;;;11.25;;
8415;SDS011;4245;42.120;24.732;2023-07-24T12:12:23;13.27;;;11.38;;
8415;SDS011;4245;42.120;24.732;2023-07-24T12:14:50;13.45;;;11.80;;
8415;SDS011;4245;42.120;24.732;2023-07-24T12:17:17;12.68;;;11.38;;
8415;SDS011;4245;42.120;24.732;2023-07-24T12:19:45;14.20;;;11.68;;
8415;SDS011;4245;42.120;24.732;2023-07-24T12:22:13;14.25;;;12.10;;
8415;SDS011;4245;42.120;24.732;2023-07-24T12:24:41;12.55;;;11.25;;
8415;SDS011;4245;42.120;24.732;2023-07-24T12:27:08;13.27;;;11.35;;
8415;SDS011;4245;42.120;24.732;2023-07-24T12:29:35;16.70;;;11.82;;
8415;SDS011;4245;42.120;24.732;2023-07-24T12:32:01;13.88;;;11.68;;
8415;SDS011;4245;42.120;24.732;2023-07-24T12:34:28;14.52;;;12.55;;
8415;SDS011;4245;42.120;24.732;2023-07-24T12:36:55;12.35;;;11.15;;
8415;SDS011;4245;42.120;24.732;2023-07-24T12:39:22;13.52;;;11.30;;
8415;SDS011;4245;42.120;24.732;2023-07-24T12:41:50;12.25;;;10.95;;
8415;SDS011;4245;42.120;24.732;2023-07-24T12:44:17;13.02;;;11.20;;
8415;SDS011;4245;42.120;24.732;2023-07-24T12:46:45;13.82;;;11.77;;
8415;SDS011;4245;42.120;24.732;2023-07-24T12:49:11;13.40;;;11.48;;
8415;SDS011;4245;42.120;24.732;2023-07-24T12:51:38;15.48;;;10.80;;
8415;SDS011;4245;42.120;24.732;2023-07-24T12:54:05;12.90;;;11.35;;
8415;SDS011;4245;42.120;24.732;2023-07-24T12:56:32;12.35;;;10.15;;
8415;SDS011;4245;42.120;24.732;2023-07-24T12:59:01;13.25;;;11.05;;
8415;SDS011;4245;42.120;24.732;2023-07-24T13:01:28;11.85;;;10.13;;
8415;SDS011;4245;42.120;24.732;2023-07-24T13:03:55;12.50;;;10.52;;
8415;SDS011;4245;42.120;24.732;2023-07-24T13:06:22;13.88;;;10.23;;
8415;SDS011;4245;42.120;24.732;2023-07-24T13:08:49;11.52;;;9.98;;
8415;SDS011;4245;42.120;24.732;2023-07-24T13:11:17;11.80;;;10.00;;
8415;SDS011;4245;42.120;24.732;2023-07-24T13:13:43;12.40;;;10.48;;
8415;SDS011;4245;42.120;24.732;2023-07-24T13:16:11;14.32;;;10.13;;
8415;SDS011;4245;42.120;24.732;2023-07-24T13:18:38;13.77;;;10.35;;
8415;SDS011;4245;42.120;24.732;2023-07-24T13:21:05;10.10;;;8.70;;
8415;SDS011;4245;42.120;24.732;2023-07-24T13:23:32;12.25;;;9.85;;
8415;SDS011;4245;42.120;24.732;2023-07-24T13:25:59;16.92;;;10.18;;
8415;SDS011;4245;42.120;24.732;2023-07-24T13:28:26;14.00;;;9.27;;
8415;SDS011;4245;42.120;24.732;2023-07-24T13:30:54;11.23;;;9.15;;
8415;SDS011;4245;42.120;24.732;2023-07-24T13:33:22;14.63;;;9.63;;
8415;SDS011;4245;42.120;24.732;2023-07-24T13:35:49;11.50;;;9.73;;
8415;SDS011;4245;42.120;24.732;2023-07-24T13:38:16;11.65;;;9.35;;
8415;SDS011;4245;42.120;24.732;2023-07-24T13:40:42;11.60;;;9.82;;
8415;SDS011;4245;42.120;24.732;2023-07-24T13:43:09;14.98;;;9.50;;
8415;SDS011;4245;42.120;24.732;2023-07-24T13:45:36;10.00;;;8.95;;
8415;SDS011;4245;42.120;24.732;2023-07-24T13:48:03;11.50;;;9.18;;
8415;SDS011;4245;42.120;24.732;2023-07-24T13:50:32;17.10;;;9.00;;
8415;SDS011;4245;42.120;24.732;2023-07-24T13:52:59;11.57;;;8.80;;
8415;SDS011;4245;42.120;24.732;2023-07-24T13:55:25;11.65;;;9.18;;
8415;SDS011;4245;42.120;24.732;2023-07-24T13:57:52;11.73;;;9.52;;
8415;SDS011;4245;42.120;24.732;2023-07-24T14:00:19;13.32;;;9.57;;
8415;SDS011;4245;42.120;24.732;2023-07-24T14:02:46;11.02;;;9.02;;
8415;SDS011;4245;42.120;24.732;2023-07-24T14:05:12;16.20;;;9.15;;
8415;SDS011;4245;42.120;24.732;2023-07-24T14:07:41;11.70;;;8.68;;
8415;SDS011;4245;42.120;24.732;2023-07-24T14:10:08;14.55;;;9.68;;
8415;SDS011;4245;42.120;24.732;2023-07-24T14:12:35;11.80;;;9.48;;
8415;SDS011;4245;42.120;24.732;2023-07-24T14:15:02;9.30;;;8.23;;
8415;SDS011;4245;42.120;24.732;2023-07-24T14:17:29;10.13;;;8.45;;
8415;SDS011;4245;42.120;24.732;2023-07-24T14:19:56;16.35;;;9.05;;
8415;SDS011;4245;42.120;24.732;2023-07-24T14:22:23;10.65;;;8.68;;
8415;SDS011;4245;42.120;24.732;2023-07-24T14:24:51;11.70;;;8.75;;
8415;SDS011;4245;42.120;24.732;2023-07-24T14:27:18;10.43;;;9.00;;
8415;SDS011;4245;42.120;24.732;2023-07-24T14:29:45;11.98;;;10.07;;
8415;SDS011;4245;42.120;24.732;2023-07-24T14:32:12;12.10;;;9.30;;
8415;SDS011;4245;42.120;24.732;2023-07-24T14:34:40;10.38;;;8.55;;
8415;SDS011;4245;42.120;24.732;2023-07-24T14:37:07;10.52;;;9.43;;
8415;SDS011;4245;42.120;24.732;2023-07-24T14:39:34;11.85;;;10.52;;
8415;SDS011;4245;42.120;24.732;2023-07-24T14:42:03;14.90;;;8.95;;